createdAt,value
2023-01-08T00:01:50.554Z,8.00
2023-01-08T00:04:18.814Z,8.07
2023-01-08T00:06:46.463Z,8.08
2023-01-08T00:09:14.088Z,8.11
2023-01-08T00:11:41.795Z,8.11
2023-01-08T00:14:09.480Z,8.06
2023-01-08T00:16:37.063Z,8.07
2023-01-08T00:19:04.599Z,8.12
2023-01-08T00:21:32.078Z,8.13
2023-01-08T00:23:59.616Z,8.12
2023-01-08T00:26:27.227Z,8.19
2023-01-08T00:28:55.834Z,8.24
2023-01-08T00:31:26.495Z,8.10
2023-01-08T00:33:55.677Z,8.12
2023-01-08T00:36:24.187Z,8.09
2023-01-08T00:38:51.745Z,8.01
2023-01-08T00:41:19.713Z,8.13
2023-01-08T00:43:47.215Z,8.20
2023-01-08T00:46:14.833Z,8.17
2023-01-08T00:48:42.360Z,8.17
2023-01-08T00:51:11.573Z,8.15
2023-01-08T00:53:41.217Z,8.21
2023-01-08T00:56:11.973Z,8.23
2023-01-08T00:58:39.540Z,8.20
2023-01-08T01:01:15.040Z,8.25
2023-01-08T01:03:43.327Z,8.32
2023-01-08T01:06:12.381Z,8.34
2023-01-08T01:08:40.030Z,8.36
2023-01-08T01:11:18.440Z,8.31
2023-01-08T01:13:45.951Z,8.34
2023-01-08T01:16:13.536Z,8.32
2023-01-08T01:18:41.118Z,8.40
2023-01-08T01:21:32.884Z,8.49
2023-01-08T01:24:04.125Z,8.48
2023-01-08T01:26:32.669Z,8.46
2023-01-08T01:29:00.850Z,8.47
2023-01-08T01:31:31.004Z,8.54
2023-01-08T01:33:59.005Z,8.51
2023-01-08T01:36:27.833Z,8.51
2023-01-08T01:38:57.450Z,8.55
2023-01-08T01:41:31.975Z,8.55
2023-01-08T01:44:02.047Z,8.50
2023-01-08T01:46:35.697Z,8.50
2023-01-08T01:49:08.357Z,8.53
2023-01-08T01:51:37.385Z,8.62
2023-01-08T01:54:09.511Z,8.53
2023-01-08T01:56:37.200Z,8.53
2023-01-08T01:59:05.733Z,8.51
2023-01-08T02:01:34.960Z,8.47
2023-01-08T02:04:02.694Z,8.36
2023-01-08T02:06:46.413Z,8.39
2023-01-08T02:09:41.763Z,8.30
2023-01-08T02:12:31.481Z,8.30
2023-01-08T02:15:19.535Z,8.33
2023-01-08T02:17:53.399Z,8.29
2023-01-08T02:20:46.723Z,8.34
2023-01-08T02:23:51.697Z,8.35
2023-01-08T02:26:29.536Z,8.35
2023-01-08T02:29:09.803Z,8.36
2023-01-08T02:31:40.957Z,8.38
2023-01-08T02:34:08.950Z,8.40
2023-01-08T02:36:43.114Z,8.44
2023-01-08T02:39:22.433Z,8.47
2023-01-08T02:42:21.596Z,8.53
2023-01-08T02:45:02.865Z,8.58
2023-01-08T02:47:40.385Z,8.67
2023-01-08T02:50:22.751Z,8.72
2023-01-08T02:53:30.733Z,8.63
2023-01-08T02:56:02.493Z,8.67
2023-01-08T02:58:33.211Z,8.68
2023-01-08T03:01:04.183Z,8.67
2023-01-08T03:03:33.047Z,8.62
2023-01-08T03:06:08.607Z,8.62
2023-01-08T03:08:40.935Z,8.64
2023-01-08T03:11:09.856Z,8.65
2023-01-08T03:13:43.675Z,8.68
2023-01-08T03:16:22.701Z,8.61
2023-01-08T03:18:58.670Z,8.68
2023-01-08T03:21:26.635Z,8.69
2023-01-08T03:23:54.317Z,8.76
2023-01-08T03:26:27.255Z,8.73
2023-01-08T03:28:58.415Z,8.67
2023-01-08T03:31:29.102Z,8.72
2023-01-08T03:33:57.501Z,8.77
2023-01-08T03:36:30.303Z,8.65
2023-01-08T03:39:09.048Z,8.70
2023-01-08T03:41:37.961Z,8.72
2023-01-08T03:44:05.791Z,8.64
2023-01-08T03:46:35.598Z,8.59
2023-01-08T03:49:05.903Z,8.61
2023-01-08T03:51:44.154Z,8.66
2023-01-08T03:54:17.591Z,8.67
2023-01-08T03:56:45.598Z,8.65
2023-01-08T03:59:16.233Z,8.61
2023-01-08T04:01:44.186Z,8.63
2023-01-08T04:04:12.866Z,8.65
2023-01-08T04:06:40.417Z,8.64
2023-01-08T04:09:07.981Z,8.65
2023-01-08T04:11:35.853Z,8.73
2023-01-08T04:14:03.520Z,8.74
2023-01-08T04:16:31.674Z,8.61
2023-01-08T04:18:59.135Z,8.61
2023-01-08T04:21:26.613Z,8.63
2023-01-08T04:23:55.784Z,8.54
2023-01-08T04:26:23.578Z,8.57
2023-01-08T04:28:51.215Z,8.50
2023-01-08T04:31:18.937Z,8.44
2023-01-08T04:33:46.434Z,8.39
2023-01-08T04:36:14.086Z,8.42
2023-01-08T04:38:41.703Z,8.31
2023-01-08T04:41:09.202Z,8.29
2023-01-08T04:43:36.740Z,8.28
2023-01-08T04:46:07.561Z,8.24
2023-01-08T04:48:35.157Z,8.18
2023-01-08T04:51:04.190Z,8.08
2023-01-08T04:53:34.775Z,8.07
2023-01-08T04:56:06.819Z,8.06
2023-01-08T04:58:35.383Z,8.01
2023-01-08T05:01:02.943Z,7.90
2023-01-08T05:03:30.497Z,7.88
2023-01-08T05:06:01.599Z,7.82
2023-01-08T05:08:29.127Z,7.84
2023-01-08T05:11:00.438Z,7.85
2023-01-08T05:13:29.015Z,7.77
2023-01-08T05:16:00.428Z,7.69
2023-01-08T05:18:29.418Z,7.71
2023-01-08T05:21:02.778Z,7.62
2023-01-08T05:23:31.215Z,7.56
2023-01-08T05:26:00.130Z,7.46
2023-01-08T05:28:28.692Z,7.31
2023-01-08T05:30:56.559Z,7.30
2023-01-08T05:33:24.570Z,7.29
2023-01-08T05:35:52.322Z,7.22
2023-01-08T05:38:19.878Z,7.19
2023-01-08T05:40:47.343Z,7.13
2023-01-08T05:43:14.908Z,7.19
2023-01-08T05:45:42.422Z,7.17
2023-01-08T05:48:09.935Z,7.21
2023-01-08T05:50:37.439Z,7.13
2023-01-08T05:53:09.433Z,7.07
2023-01-08T05:55:37.604Z,7.07
2023-01-08T05:58:06.866Z,7.08
2023-01-08T06:00:35.680Z,6.99
2023-01-08T06:03:03.328Z,6.93
2023-01-08T06:05:34.302Z,6.92
2023-01-08T06:08:02.152Z,6.90
2023-01-08T06:10:30.014Z,6.92
2023-01-08T06:12:57.575Z,6.84
2023-01-08T06:15:25.167Z,6.82
2023-01-08T06:17:52.749Z,6.81
2023-01-08T06:20:20.328Z,6.81
2023-01-08T06:22:47.917Z,6.78
2023-01-08T06:25:15.485Z,6.81
2023-01-08T06:27:43.016Z,6.76
2023-01-08T06:30:13.516Z,6.75
2023-01-08T06:32:41.126Z,6.76
2023-01-08T06:35:09.145Z,6.74
2023-01-08T06:37:36.819Z,6.64
2023-01-08T06:40:04.639Z,6.65
2023-01-08T06:42:32.209Z,6.66
2023-01-08T06:44:59.749Z,6.64
2023-01-08T06:47:27.351Z,6.54
2023-01-08T06:49:54.935Z,6.61
2023-01-08T06:52:22.468Z,6.57
2023-01-08T06:54:50.039Z,6.65
2023-01-08T06:57:17.707Z,6.58
2023-01-08T06:59:45.264Z,6.61
2023-01-08T07:02:16.806Z,6.63
2023-01-08T07:04:45.003Z,6.53
2023-01-08T07:07:15.067Z,6.59
2023-01-08T07:09:43.909Z,6.54
2023-01-08T07:12:15.292Z,6.57
2023-01-08T07:14:43.068Z,6.55
2023-01-08T07:17:10.865Z,6.54
2023-01-08T07:19:38.397Z,6.49
2023-01-08T07:22:05.976Z,6.50
2023-01-08T07:24:33.579Z,6.48
2023-01-08T07:27:01.151Z,6.47
2023-01-08T07:29:28.762Z,6.43
2023-01-08T07:31:56.296Z,6.41
2023-01-08T07:34:23.793Z,6.46
2023-01-08T07:36:51.355Z,6.43
2023-01-08T07:39:18.848Z,6.36
2023-01-08T07:41:46.411Z,6.40
2023-01-08T07:44:14.094Z,6.49
2023-01-08T07:46:41.706Z,6.45
2023-01-08T07:49:09.338Z,6.38
2023-01-08T07:51:36.940Z,6.37
2023-01-08T07:54:04.579Z,6.33
2023-01-08T07:56:32.142Z,6.39
2023-01-08T07:58:59.703Z,6.36
2023-01-08T08:01:27.464Z,6.44
2023-01-08T08:03:55.074Z,6.39
2023-01-08T08:06:22.670Z,6.36
2023-01-08T08:08:50.226Z,6.34
2023-01-08T08:11:17.755Z,6.26
2023-01-08T08:13:47.489Z,6.28
2023-01-08T08:16:15.101Z,6.38
2023-01-08T08:18:42.799Z,6.36
2023-01-08T08:21:10.336Z,6.38
2023-01-08T08:23:37.931Z,6.41
2023-01-08T08:26:06.086Z,6.43
2023-01-08T08:28:33.676Z,6.43
2023-01-08T08:31:01.237Z,6.33
2023-01-08T08:33:28.827Z,6.43
2023-01-08T08:35:56.362Z,6.39
2023-01-08T08:38:25.004Z,6.45
2023-01-08T08:40:52.747Z,6.46
2023-01-08T08:43:20.288Z,6.41
2023-01-08T08:45:47.881Z,6.38
2023-01-08T08:48:16.773Z,6.41
2023-01-08T08:50:44.585Z,6.42
2023-01-08T08:53:12.152Z,6.46
2023-01-08T08:55:39.784Z,6.43
2023-01-08T08:58:11.421Z,6.38
2023-01-08T09:00:40.657Z,6.38
2023-01-08T09:03:08.637Z,6.41
2023-01-08T09:05:37.573Z,6.48
2023-01-08T09:08:05.140Z,6.64
2023-01-08T09:10:32.731Z,6.65
2023-01-08T09:13:00.234Z,6.74
2023-01-08T09:15:27.839Z,6.68
2023-01-08T09:17:57.166Z,6.70
2023-01-08T09:20:26.642Z,6.82
2023-01-08T09:22:54.831Z,6.82
2023-01-08T09:25:22.442Z,6.88
2023-01-08T09:27:49.986Z,6.91
2023-01-08T09:30:17.609Z,7.03
2023-01-08T09:32:45.133Z,7.03
2023-01-08T09:35:12.653Z,7.02
2023-01-08T09:37:40.215Z,7.03
2023-01-08T09:40:08.475Z,7.26
2023-01-08T09:42:36.211Z,7.35
2023-01-08T09:45:04.704Z,7.39
2023-01-08T09:47:41.413Z,7.52
2023-01-08T09:50:14.974Z,7.58
2023-01-08T09:52:43.795Z,7.70
2023-01-08T09:55:15.203Z,7.68
2023-01-08T09:57:44.729Z,7.53
2023-01-08T10:00:34.861Z,7.52
2023-01-08T10:03:02.522Z,7.72
2023-01-08T10:05:30.991Z,7.90
2023-01-08T10:07:59.260Z,7.91
2023-01-08T10:10:30.368Z,8.12
2023-01-08T10:12:58.234Z,8.25
2023-01-08T10:15:26.722Z,8.30
2023-01-08T10:18:03.105Z,8.44
2023-01-08T10:20:31.722Z,8.41
2023-01-08T10:23:20.282Z,8.34
2023-01-08T10:25:51.864Z,8.47
2023-01-08T10:28:27.347Z,8.57
2023-01-08T10:31:01.259Z,8.50
2023-01-08T10:33:38.629Z,8.61
2023-01-08T10:36:10.587Z,8.61
2023-01-08T10:38:43.282Z,8.70
2023-01-08T10:41:15.095Z,8.87
2023-01-08T10:43:55.029Z,8.94
2023-01-08T10:46:31.853Z,8.83
2023-01-08T10:49:02.481Z,8.91
2023-01-08T10:51:32.298Z,8.94
2023-01-08T10:54:02.139Z,9.01
2023-01-08T10:56:32.102Z,8.98
2023-01-08T10:58:59.607Z,9.14
2023-01-08T11:01:31.919Z,9.25
2023-01-08T11:04:07.031Z,9.12
2023-01-08T11:06:40.736Z,9.16
2023-01-08T11:09:22.327Z,9.05
2023-01-08T11:11:50.753Z,9.21
2023-01-08T11:14:25.676Z,9.02
2023-01-08T11:16:54.643Z,9.07
2023-01-08T11:19:31.814Z,9.09
2023-01-08T11:22:05.149Z,9.16
2023-01-08T11:24:37.325Z,9.35
2023-01-08T11:27:15.356Z,9.29
2023-01-08T11:29:51.825Z,9.39
2023-01-08T11:32:25.988Z,9.28
2023-01-08T11:35:26.602Z,9.06
2023-01-08T11:37:59.431Z,9.16
2023-01-08T11:40:32.858Z,9.22
2023-01-08T11:43:45.159Z,9.38
2023-01-08T11:46:34.366Z,9.33
2023-01-08T11:49:36.833Z,9.27
2023-01-08T11:52:36.236Z,9.29
2023-01-08T11:55:31.328Z,9.59
2023-01-08T11:58:23.138Z,9.45
2023-01-08T12:00:50.675Z,9.46
2023-01-08T12:03:24.199Z,9.39
2023-01-08T12:06:20.781Z,9.39
2023-01-08T12:09:11.221Z,9.25
2023-01-08T12:12:08.991Z,9.29
2023-01-08T12:14:58.523Z,9.60
2023-01-08T12:17:41.213Z,9.49
2023-01-08T12:20:35.707Z,9.59
2023-01-08T12:23:06.229Z,9.71
2023-01-08T12:25:48.715Z,9.70
2023-01-08T12:28:22.998Z,9.78
2023-01-08T12:31:10.835Z,9.84
2023-01-08T12:33:51.634Z,9.79
2023-01-08T12:36:25.318Z,9.71
2023-01-08T12:39:04.134Z,9.53
2023-01-08T12:41:36.003Z,9.62
2023-01-08T12:44:06.302Z,9.42
2023-01-08T12:46:36.752Z,9.53
2023-01-08T12:49:07.303Z,9.60
2023-01-08T12:51:37.974Z,9.36
2023-01-08T12:54:05.493Z,9.35
2023-01-08T12:57:02.839Z,9.45
2023-01-08T12:59:42.739Z,9.49
2023-01-08T13:02:35.286Z,9.56
2023-01-08T13:05:19.140Z,9.50
2023-01-08T13:07:49.433Z,9.55
2023-01-08T13:10:42.607Z,9.64
2023-01-08T13:13:27.485Z,9.68
2023-01-08T13:16:10.313Z,9.76
2023-01-08T13:18:39.117Z,9.54
2023-01-08T13:21:15.146Z,9.60
2023-01-08T13:23:42.716Z,9.48
2023-01-08T13:26:10.276Z,9.50
2023-01-08T13:28:37.765Z,9.55
2023-01-08T13:31:28.407Z,9.41
2023-01-08T13:33:56.850Z,9.53
2023-01-08T13:36:27.179Z,9.54
2023-01-08T13:39:33.541Z,9.57
2023-01-08T13:42:13.762Z,9.34
2023-01-08T13:44:43.471Z,9.43
2023-01-08T13:47:27.443Z,9.42
2023-01-08T13:49:56.450Z,9.38
2023-01-08T13:52:48.953Z,9.26
2023-01-08T13:55:16.371Z,9.21
2023-01-08T13:57:49.479Z,9.29
2023-01-08T14:00:32.075Z,9.34
2023-01-08T14:02:59.725Z,9.26
2023-01-08T14:05:31.688Z,9.20
2023-01-08T14:07:59.860Z,9.26
2023-01-08T14:10:29.695Z,9.19
2023-01-08T14:13:09.502Z,9.22
2023-01-08T14:15:39.559Z,9.15
2023-01-08T14:18:07.167Z,9.33
2023-01-08T14:20:40.309Z,9.28
2023-01-08T14:23:37.301Z,9.36
2023-01-08T14:26:08.540Z,9.35
2023-01-08T14:28:36.848Z,9.17
2023-01-08T14:31:04.347Z,9.11
2023-01-08T14:33:35.638Z,9.12
2023-01-08T14:36:07.138Z,9.16
2023-01-08T14:38:34.808Z,9.23
2023-01-08T14:41:14.619Z,9.22
2023-01-08T14:43:47.432Z,9.16
2023-01-08T14:46:25.024Z,9.11
2023-01-08T14:48:54.384Z,8.96
2023-01-08T14:51:25.162Z,8.98
2023-01-08T14:53:54.815Z,8.96
2023-01-08T14:56:27.484Z,8.88
2023-01-08T14:58:55.633Z,8.88
2023-01-08T15:01:29.670Z,8.82
2023-01-08T15:04:18.161Z,8.78
2023-01-08T15:06:46.373Z,8.62
2023-01-08T15:09:34.740Z,8.62
2023-01-08T15:12:23.245Z,8.52
2023-01-08T15:14:50.820Z,8.51
2023-01-08T15:17:21.488Z,8.55
2023-01-08T15:19:53.243Z,8.38
2023-01-08T15:22:30.927Z,8.36
2023-01-08T15:25:07.512Z,8.35
2023-01-08T15:27:37.013Z,8.33
2023-01-08T15:30:06.037Z,8.33
2023-01-08T15:32:37.150Z,8.26
2023-01-08T15:35:16.349Z,8.24
2023-01-08T15:37:44.076Z,8.18
2023-01-08T15:40:14.902Z,8.10
2023-01-08T15:43:00.129Z,8.13
2023-01-08T15:45:29.887Z,8.13
2023-01-08T15:47:57.460Z,8.18
2023-01-08T15:50:26.929Z,8.12
2023-01-08T15:52:56.385Z,8.10
2023-01-08T15:55:26.032Z,8.07
2023-01-08T15:57:55.896Z,7.96
2023-01-08T16:00:23.422Z,7.86
2023-01-08T16:02:53.601Z,7.81
2023-01-08T16:05:23.673Z,7.80
2023-01-08T16:07:51.354Z,7.74
2023-01-08T16:10:19.884Z,7.75
2023-01-08T16:12:47.607Z,7.68
2023-01-08T16:15:16.760Z,7.64
2023-01-08T16:17:45.247Z,7.64
2023-01-08T16:20:14.324Z,7.63
2023-01-08T16:22:42.379Z,7.53
2023-01-08T16:25:10.450Z,7.49
2023-01-08T16:27:39.447Z,7.45
2023-01-08T16:30:09.137Z,7.41
2023-01-08T16:32:36.712Z,7.47
2023-01-08T16:35:04.451Z,7.40
2023-01-08T16:37:32.735Z,7.36
2023-01-08T16:40:00.311Z,7.35
2023-01-08T16:42:28.035Z,7.40
2023-01-08T16:44:55.644Z,7.44
2023-01-08T16:47:23.263Z,7.42
2023-01-08T16:49:51.362Z,7.49
2023-01-08T16:52:19.175Z,7.48
2023-01-08T16:54:48.112Z,7.50
2023-01-08T16:57:15.787Z,7.58
2023-01-08T16:59:43.270Z,7.67
2023-01-08T17:02:11.422Z,7.62
2023-01-08T17:04:39.127Z,7.61
2023-01-08T17:07:07.039Z,7.64
2023-01-08T17:09:34.760Z,7.65
2023-01-08T17:12:02.483Z,7.72
2023-01-08T17:14:30.063Z,7.74
2023-01-08T17:16:57.584Z,7.74
2023-01-08T17:19:25.208Z,7.81
2023-01-08T17:21:52.756Z,7.83
2023-01-08T17:24:20.336Z,7.83
2023-01-08T17:26:47.855Z,7.86
2023-01-08T17:29:15.452Z,7.91
2023-01-08T17:31:42.977Z,7.89
2023-01-08T17:34:14.695Z,7.90
2023-01-08T17:36:42.741Z,7.93
2023-01-08T17:39:12.130Z,7.96
2023-01-08T17:41:57.872Z,7.98
2023-01-08T17:44:26.377Z,7.96
2023-01-08T17:46:53.869Z,7.92
2023-01-08T17:49:21.460Z,7.85
2023-01-08T17:51:49.164Z,7.87
2023-01-08T17:54:17.816Z,7.87
2023-01-08T17:56:45.510Z,7.81
2023-01-08T17:59:17.824Z,7.78
2023-01-08T18:01:45.875Z,7.79
2023-01-08T18:04:14.765Z,7.81
2023-01-08T18:06:43.339Z,7.82
2023-01-08T18:09:12.495Z,7.86
2023-01-08T18:11:41.457Z,7.81
2023-01-08T18:14:12.178Z,7.83
2023-01-08T18:16:39.887Z,7.83
2023-01-08T18:19:07.510Z,7.80
2023-01-08T18:21:35.059Z,7.81
2023-01-08T18:24:02.567Z,7.81
2023-01-08T18:26:30.135Z,7.86
2023-01-08T18:28:57.681Z,7.81
2023-01-08T18:31:25.247Z,7.79
2023-01-08T18:33:53.441Z,7.73
2023-01-08T18:36:21.569Z,7.73
2023-01-08T18:38:49.972Z,7.69
2023-01-08T18:41:34.734Z,7.70
2023-01-08T18:44:03.363Z,7.69
2023-01-08T18:46:31.215Z,7.72
2023-01-08T18:48:58.886Z,7.65
2023-01-08T18:51:26.380Z,7.64
2023-01-08T18:53:55.627Z,7.58
2023-01-08T18:56:28.359Z,7.64
2023-01-08T18:58:56.350Z,7.66
2023-01-08T19:01:24.336Z,7.61
2023-01-08T19:03:52.223Z,7.65
2023-01-08T19:06:19.883Z,7.61
2023-01-08T19:08:47.895Z,7.70
2023-01-08T19:11:15.620Z,7.70
2023-01-08T19:13:43.379Z,7.66
2023-01-08T19:16:14.391Z,7.74
2023-01-08T19:18:42.299Z,7.76
2023-01-08T19:21:10.960Z,7.68
2023-01-08T19:23:38.485Z,7.66
2023-01-08T19:26:08.090Z,7.71
2023-01-08T19:28:35.777Z,7.75
2023-01-08T19:31:04.044Z,7.74
2023-01-08T19:33:31.682Z,7.75
2023-01-08T19:36:08.499Z,7.76
2023-01-08T19:38:35.990Z,7.77
2023-01-08T19:41:03.588Z,7.81
2023-01-08T19:43:42.259Z,7.85
2023-01-08T19:46:11.800Z,7.86
2023-01-08T19:48:40.756Z,7.83
2023-01-08T19:51:09.870Z,7.80
2023-01-08T19:53:37.873Z,7.74
2023-01-08T19:56:06.854Z,7.76
2023-01-08T19:58:34.714Z,7.72
2023-01-08T20:01:08.791Z,7.68
2023-01-08T20:03:36.307Z,7.61
2023-01-08T20:06:07.931Z,7.66
2023-01-08T20:08:35.471Z,7.60
2023-01-08T20:11:11.494Z,7.67
2023-01-08T20:13:39.496Z,7.59
2023-01-08T20:16:10.091Z,7.70
2023-01-08T20:18:38.068Z,7.74
2023-01-08T20:21:11.557Z,7.77
2023-01-08T20:23:39.926Z,7.75
2023-01-08T20:26:11.146Z,7.77
2023-01-08T20:28:39.971Z,7.87
2023-01-08T20:31:16.075Z,7.87
2023-01-08T20:33:44.104Z,7.82
2023-01-08T20:36:14.698Z,7.83
2023-01-08T20:38:43.509Z,7.80
2023-01-08T20:41:11.945Z,7.79
2023-01-08T20:43:40.937Z,7.82
2023-01-08T20:46:10.355Z,7.77
2023-01-08T20:48:46.889Z,7.76
2023-01-08T20:51:15.045Z,7.64
2023-01-08T20:53:42.687Z,7.65
2023-01-08T20:56:13.994Z,7.56
2023-01-08T20:58:44.611Z,7.63
2023-01-08T21:01:18.302Z,7.56
2023-01-08T21:03:46.082Z,7.51
2023-01-08T21:06:16.806Z,7.48
2023-01-08T21:08:45.783Z,7.43
2023-01-08T21:11:15.202Z,7.46
2023-01-08T21:13:43.242Z,7.38
2023-01-08T21:16:14.648Z,7.39
2023-01-08T21:18:44.061Z,7.43
2023-01-08T21:21:13.238Z,7.37
2023-01-08T21:23:41.063Z,7.36
2023-01-08T21:26:11.938Z,7.40
2023-01-08T21:28:41.458Z,7.36
2023-01-08T21:31:25.756Z,7.39
2023-01-08T21:33:57.775Z,7.44
2023-01-08T21:36:27.579Z,7.40
2023-01-08T21:38:57.624Z,7.49
2023-01-08T21:41:45.149Z,7.55
2023-01-08T21:44:37.768Z,7.49
2023-01-08T21:47:08.715Z,7.45
2023-01-08T21:49:36.921Z,7.48
2023-01-08T21:52:23.476Z,7.50
2023-01-08T21:54:51.405Z,7.57
2023-01-08T21:57:19.408Z,7.56
2023-01-08T21:59:50.499Z,7.57
2023-01-08T22:02:19.934Z,7.73
2023-01-08T22:04:47.649Z,7.78
2023-01-08T22:07:16.580Z,7.76
2023-01-08T22:09:44.136Z,7.77
2023-01-08T22:12:11.740Z,7.69
2023-01-08T22:14:39.381Z,7.76
2023-01-08T22:17:08.398Z,7.62
2023-01-08T22:19:38.653Z,7.60
2023-01-08T22:22:08.178Z,7.52
2023-01-08T22:24:37.064Z,7.43
2023-01-08T22:27:04.701Z,7.40
2023-01-08T22:29:32.302Z,7.41
2023-01-08T22:31:59.845Z,7.42
2023-01-08T22:34:27.466Z,7.54
2023-01-08T22:36:55.004Z,7.46
2023-01-08T22:39:22.881Z,7.40
2023-01-08T22:41:50.396Z,7.41
2023-01-08T22:44:18.040Z,7.41
2023-01-08T22:46:45.564Z,7.47
2023-01-08T22:49:14.402Z,7.39
2023-01-08T22:51:42.574Z,7.41
2023-01-08T22:54:12.681Z,7.31
2023-01-08T22:56:40.223Z,7.24
2023-01-08T22:59:07.809Z,7.16
2023-01-08T23:01:35.499Z,7.21
2023-01-08T23:04:03.549Z,7.24
2023-01-08T23:06:32.250Z,7.15
2023-01-08T23:09:00.916Z,7.13
2023-01-08T23:11:34.299Z,7.20
2023-01-08T23:14:02.215Z,7.11
2023-01-08T23:16:29.886Z,7.14
2023-01-08T23:18:58.054Z,7.09
2023-01-08T23:21:27.168Z,7.06
2023-01-08T23:23:54.704Z,6.98
2023-01-08T23:26:25.621Z,7.04
2023-01-08T23:28:54.904Z,7.02
2023-01-08T23:31:30.705Z,6.97
2023-01-08T23:33:58.675Z,7.03
2023-01-08T23:36:26.517Z,7.07
2023-01-08T23:38:56.042Z,7.12
2023-01-08T23:41:33.081Z,7.06
2023-01-08T23:44:04.496Z,7.03
2023-01-08T23:46:32.176Z,7.15
2023-01-08T23:48:59.853Z,7.06
2023-01-08T23:51:27.423Z,7.02
2023-01-08T23:53:54.904Z,7.04
2023-01-08T23:56:22.712Z,7.00
2023-01-08T23:58:50.416Z,6.87
